sensor_id;sensor_type;location;lat;lon;timestamp;P1;P2;P0
74430;PMS7003;62863;52.062;23.764;2023-04-01T00:01:18;19.4;18;14
74430;PMS7003;62863;52.062;23.764;2023-04-01T00:06:36;19.2;17.8;13.4
74430;PMS7003;62863;52.062;23.764;2023-04-01T00:11:20;21.3;17.8;13.5
74430;PMS7003;62863;52.062;23.764;2023-04-01T00:16:18;23.6;18.4;13.2
74430;PMS7003;62863;52.062;23.764;2023-04-01T00:21:36;20.8;18;13.6
74430;PMS7003;62863;52.062;23.764;2023-04-01T00:25:54;31.8;26.6;18.6
74430;PMS7003;62863;52.062;23.764;2023-04-01T00:31:36;62.8;51;33.8
74430;PMS7003;62863;52.062;23.764;2023-04-01T00:36:21;45;38.2;25.8
74430;PMS7003;62863;52.062;23.764;2023-04-01T00:41:00;30.2;26;19
74430;PMS7003;62863;52.062;23.764;2023-04-01T00:46:34;21.5;19.5;14.3
74430;PMS7003;62863;52.062;23.764;2023-04-01T00:51:13;22;18.8;13.6
74430;PMS7003;62863;52.062;23.764;2023-04-01T00:56:35;19.8;17.4;12.2
74430;PMS7003;62863;52.062;23.764;2023-04-01T01:01:18;21.6;18.2;12.4
74430;PMS7003;62863;52.062;23.764;2023-04-01T01:06:07;21.8;19.4;14.8
74430;PMS7003;62863;52.062;23.764;2023-04-01T01:11:35;24;21;15.3
74430;PMS7003;62863;52.062;23.764;2023-04-01T01:16:16;25.2;20.4;14.4
74430;PMS7003;62863;52.062;23.764;2023-04-01T01:21:40;25;21.4;15.4
74430;PMS7003;62863;52.062;23.764;2023-04-01T01:26:23;26.6;21.2;15
74430;PMS7003;62863;52.062;23.764;2023-04-01T01:31:19;20.6;18.6;13.2
74430;PMS7003;62863;52.062;23.764;2023-04-01T01:36:34;24.3;20.3;14.8
74430;PMS7003;62863;52.062;23.764;2023-04-01T01:41:26;31.2;28.4;20
74430;PMS7003;62863;52.062;23.764;2023-04-01T01:46:25;29.2;26.2;19
74430;PMS7003;62863;52.062;23.764;2023-04-01T01:51:21;28;21.6;15.6
74430;PMS7003;62863;52.062;23.764;2023-04-01T01:55:54;22.3;19.5;13.8
74430;PMS7003;62863;52.062;23.764;2023-04-01T02:01:35;23.6;19.4;15
74430;PMS7003;62863;52.062;23.764;2023-04-01T02:06:19;21.4;19.6;13.8
74430;PMS7003;62863;52.062;23.764;2023-04-01T02:11:25;21.2;20;13.4
74430;PMS7003;62863;52.062;23.764;2023-04-01T02:16:36;25;19.4;13.6
74430;PMS7003;62863;52.062;23.764;2023-04-01T02:20:55;23;20.2;14
74430;PMS7003;62863;52.062;23.764;2023-04-01T02:26:34;25;21.6;15
74430;PMS7003;62863;52.062;23.764;2023-04-01T02:31:12;23.3;20.8;13.8
74430;PMS7003;62863;52.062;23.764;2023-04-01T02:36:28;19.2;17.2;12.4
74430;PMS7003;62863;52.062;23.764;2023-04-01T02:41:38;19.4;17.6;11.8
74430;PMS7003;62863;52.062;23.764;2023-04-01T02:46:34;20.8;18.8;13
74430;PMS7003;62863;52.062;23.764;2023-04-01T02:51:34;21;19.5;13.8
74430;PMS7003;62863;52.062;23.764;2023-04-01T02:56:12;23;20.4;13.6
74430;PMS7003;62863;52.062;23.764;2023-04-01T03:01:24;22.8;18.8;13.3
74430;PMS7003;62863;52.062;23.764;2023-04-01T03:06:34;22.8;20;13.6
74430;PMS7003;62863;52.062;23.764;2023-04-01T03:10:54;19.8;17.6;13.4
74430;PMS7003;62863;52.062;23.764;2023-04-01T03:16:34;22.6;19.4;13.8
74430;PMS7003;62863;52.062;23.764;2023-04-01T03:20:54;24.4;20.4;13.2
74430;PMS7003;62863;52.062;23.764;2023-04-01T03:26:24;20.4;18.8;14
74430;PMS7003;62863;52.062;23.764;2023-04-01T03:31:34;20.2;18.6;14
74430;PMS7003;62863;52.062;23.764;2023-04-01T03:36:12;22.8;19;13.2
74430;PMS7003;62863;52.062;23.764;2023-04-01T03:41:35;25.6;21.2;14
74430;PMS7003;62863;52.062;23.764;2023-04-01T03:46:16;22;20.2;13.8
74430;PMS7003;62863;52.062;23.764;2023-04-01T03:51:24;25;22;16.8
74430;PMS7003;62863;52.062;23.764;2023-04-01T03:56:34;33;29.8;21.6
74430;PMS7003;62863;52.062;23.764;2023-04-01T04:00:54;32.3;29.3;19.5
74430;PMS7003;62863;52.062;23.764;2023-04-01T04:06:34;31.6;27.8;18.2
74430;PMS7003;62863;52.062;23.764;2023-04-01T04:11:02;27;23;16.4
74430;PMS7003;62863;52.062;23.764;2023-04-01T04:16:24;29.2;23.2;17
74430;PMS7003;62863;52.062;23.764;2023-04-01T04:21:34;26.2;23.2;16.6
74430;PMS7003;62863;52.062;23.764;2023-04-01T04:25:55;33.6;29;19.6
74430;PMS7003;62863;52.062;23.764;2023-04-01T04:31:34;42.8;34.4;24
74430;PMS7003;62863;52.062;23.764;2023-04-01T04:36:05;32;28.8;18.5
74430;PMS7003;62863;52.062;23.764;2023-04-01T04:41:22;28.2;23.8;17.4
74430;PMS7003;62863;52.062;23.764;2023-04-01T04:46:34;26;22.4;15.8
74430;PMS7003;62863;52.062;23.764;2023-04-01T04:50:54;26.2;22;16.2
74430;PMS7003;62863;52.062;23.764;2023-04-01T04:56:34;31.6;29;19.6
74430;PMS7003;62863;52.062;23.764;2023-04-01T05:01:05;29.8;24.5;17.8
74430;PMS7003;62863;52.062;23.764;2023-04-01T05:06:24;26.2;23.4;16.4
74430;PMS7003;62863;52.062;23.764;2023-04-01T05:11:34;26.4;22.4;16
74430;PMS7003;62863;52.062;23.764;2023-04-01T05:16:07;30.8;27.4;19.4
74430;PMS7003;62863;52.062;23.764;2023-04-01T05:21:34;27.8;24.6;17.2
74430;PMS7003;62863;52.062;23.764;2023-04-01T05:26:34;39.6;34.8;22.8
74430;PMS7003;62863;52.062;23.764;2023-04-01T05:31:24;30.8;26.2;18.6
74430;PMS7003;62863;52.062;23.764;2023-04-01T05:36:21;29.2;25;17.8
74430;PMS7003;62863;52.062;23.764;2023-04-01T05:40:58;27.6;24.2;16
74430;PMS7003;62863;52.062;23.764;2023-04-01T05:46:00;32.6;27.6;18.2
74430;PMS7003;62863;52.062;23.764;2023-04-01T05:51:26;32.4;29.4;20.2
74430;PMS7003;62863;52.062;23.764;2023-04-01T05:56:32;32.6;26.6;19
74430;PMS7003;62863;52.062;23.764;2023-04-01T06:01:26;28.8;27;17.5
74430;PMS7003;62863;52.062;23.764;2023-04-01T06:05:54;27.8;25;17.8
74430;PMS7003;62863;52.062;23.764;2023-04-01T06:11:14;31.6;28.6;19.4
74430;PMS7003;62863;52.062;23.764;2023-04-01T06:16:28;30.4;27.8;19.8
74430;PMS7003;62863;52.062;23.764;2023-04-01T06:21:40;27;24;16.6
74430;PMS7003;62863;52.062;23.764;2023-04-01T06:26:29;28.8;24;17
74430;PMS7003;62863;52.062;23.764;2023-04-01T06:30:56;29;22.8;15.8
74430;PMS7003;62863;52.062;23.764;2023-04-01T06:36:14;30.2;24.6;17
74430;PMS7003;62863;52.062;23.764;2023-04-01T06:46:29;28.3;24;17
74430;PMS7003;62863;52.062;23.764;2023-04-01T06:51:26;30.2;25.4;16.8
74430;PMS7003;62863;52.062;23.764;2023-04-01T06:55:55;32.4;26.8;19
74430;PMS7003;62863;52.062;23.764;2023-04-01T07:00:56;25.8;22.6;15.6
74430;PMS7003;62863;52.062;23.764;2023-04-01T07:06:27;32.2;26;17.8
74430;PMS7003;62863;52.062;23.764;2023-04-01T07:11:35;32.4;28.8;19.8
74430;PMS7003;62863;52.062;23.764;2023-04-01T07:16:27;31.6;26.4;18.8
74430;PMS7003;62863;52.062;23.764;2023-04-01T07:21:29;28.4;26.2;18.8
74430;PMS7003;62863;52.062;23.764;2023-04-01T07:25:55;35;28.8;19.8
74430;PMS7003;62863;52.062;23.764;2023-04-01T07:31:20;33.2;28.8;20
74430;PMS7003;62863;52.062;23.764;2023-04-01T07:36:30;28.4;25.8;19.4
74430;PMS7003;62863;52.062;23.764;2023-04-01T07:41:28;35;29.4;21.6
74430;PMS7003;62863;52.062;23.764;2023-04-01T07:45:56;38.8;32.2;22.6
74430;PMS7003;62863;52.062;23.764;2023-04-01T07:50:55;36.6;30.4;20.4
74430;PMS7003;62863;52.062;23.764;2023-04-01T07:56:27;37.3;31.8;21.3
74430;PMS7003;62863;52.062;23.764;2023-04-01T08:01:36;37;30.3;20.3
74430;PMS7003;62863;52.062;23.764;2023-04-01T08:06:27;34.6;31.4;20.8
74430;PMS7003;62863;52.062;23.764;2023-04-01T08:10:55;42;35.2;23.2
74430;PMS7003;62863;52.062;23.764;2023-04-01T08:15:55;40.6;34.6;22.2
74430;PMS7003;62863;52.062;23.764;2023-04-01T08:21:27;37.8;31.8;21.6
74430;PMS7003;62863;52.062;23.764;2023-04-01T08:26:35;30.5;27.5;17.5
74430;PMS7003;62863;52.062;23.764;2023-04-01T08:30:56;42.5;34.5;22.5
74430;PMS7003;62863;52.062;23.764;2023-04-01T08:36:11;43.6;36.4;23.8
74430;PMS7003;62863;52.062;23.764;2023-04-01T08:41:14;41.2;35.4;23.4
74430;PMS7003;62863;52.062;23.764;2023-04-01T08:46:29;36.6;32.4;22.2
74430;PMS7003;62863;52.062;23.764;2023-04-01T08:51:52;33;30;20.2
74430;PMS7003;62863;52.062;23.764;2023-04-01T08:56:26;40;32.3;22
74430;PMS7003;62863;52.062;23.764;2023-04-01T09:01:11;37.2;30.8;21
74430;PMS7003;62863;52.062;23.764;2023-04-01T09:06:21;35.6;32.6;21.6
74430;PMS7003;62863;52.062;23.764;2023-04-01T09:11:33;37.8;31.8;21.6
74430;PMS7003;62863;52.062;23.764;2023-04-01T09:16:43;32.8;29.8;20.4
74430;PMS7003;62863;52.062;23.764;2023-04-01T09:21:32;35.3;30.8;20.3
74430;PMS7003;62863;52.062;23.764;2023-04-01T09:26:06;37.2;31.6;21.4
74430;PMS7003;62863;52.062;23.764;2023-04-01T09:31:01;35.2;30;20.4
74430;PMS7003;62863;52.062;23.764;2023-04-01T09:36:33;36.6;30.8;21.4
74430;PMS7003;62863;52.062;23.764;2023-04-01T09:41:39;34.2;31.2;20.8
74430;PMS7003;62863;52.062;23.764;2023-04-01T09:46:33;36.4;30.4;21.2
74430;PMS7003;62863;52.062;23.764;2023-04-01T09:50:59;37.3;30.8;19.8
74430;PMS7003;62863;52.062;23.764;2023-04-01T09:56:19;41.8;35;22.6
74430;PMS7003;62863;52.062;23.764;2023-04-01T10:06:44;37.3;30.5;20.8
74430;PMS7003;62863;52.062;23.764;2023-04-01T10:17:20;30.3;27;19
74430;PMS7003;62863;52.062;23.764;2023-04-01T10:21:04;39.2;33.2;21.2
74430;PMS7003;62863;52.062;23.764;2023-04-01T10:26:03;35.8;29.8;19.4
74430;PMS7003;62863;52.062;23.764;2023-04-01T10:32:04;31;26;18
74430;PMS7003;62863;52.062;23.764;2023-04-01T10:36:02;30.5;26;17
74430;PMS7003;62863;52.062;23.764;2023-04-01T10:41:14;49.3;38.7;24.7
74430;PMS7003;62863;52.062;23.764;2023-04-01T10:46:14;26;23;16.7
74430;PMS7003;62863;52.062;23.764;2023-04-01T10:51:10;26;21.8;16
74430;PMS7003;62863;52.062;23.764;2023-04-01T10:56:34;26.8;24;16.2
74430;PMS7003;62863;52.062;23.764;2023-04-01T11:06:18;36.4;32.4;21
74430;PMS7003;62863;52.062;23.764;2023-04-01T11:11:21;31.7;29.7;19
74430;PMS7003;62863;52.062;23.764;2023-04-01T11:16:02;32.2;29;18.2
74430;PMS7003;62863;52.062;23.764;2023-04-01T11:21:53;39;32.3;21
74430;PMS7003;62863;52.062;23.764;2023-04-01T11:26:31;36.8;30.4;20.6
74430;PMS7003;62863;52.062;23.764;2023-04-01T11:31:00;30.3;24;16
74430;PMS7003;62863;52.062;23.764;2023-04-01T11:40:58;34;27;18
74430;PMS7003;62863;52.062;23.764;2023-04-01T11:46:37;22;19;13
74430;PMS7003;62863;52.062;23.764;2023-04-01T11:51:32;22.3;17.5;13
74430;PMS7003;62863;52.062;23.764;2023-04-01T11:55:59;24.6;20.6;14.2
74430;PMS7003;62863;52.062;23.764;2023-04-01T12:01:17;22.3;20.7;14.7
74430;PMS7003;62863;52.062;23.764;2023-04-01T12:06:25;23.8;17.8;13
74430;PMS7003;62863;52.062;23.764;2023-04-01T12:11:37;21.6;18.8;14.2
74430;PMS7003;62863;52.062;23.764;2023-04-01T12:16:36;23.4;20;14.6
74430;PMS7003;62863;52.062;23.764;2023-04-01T12:21:08;21;18;13
74430;PMS7003;62863;52.062;23.764;2023-04-01T12:31:05;20.5;18.5;13.5
74430;PMS7003;62863;52.062;23.764;2023-04-01T12:41:28;8;8;6
74430;PMS7003;62863;52.062;23.764;2023-04-01T12:51:23;6;6;5
74430;PMS7003;62863;52.062;23.764;2023-04-01T13:06:30;13;11.7;9.3
74430;PMS7003;62863;52.062;23.764;2023-04-01T13:16:13;5.8;5.8;4.3
74430;PMS7003;62863;52.062;23.764;2023-04-01T13:20:59;7;5.5;4
74430;PMS7003;62863;52.062;23.764;2023-04-01T13:31:33;9;7;6
74430;PMS7003;62863;52.062;23.764;2023-04-01T13:41:15;5;5;4
74430;PMS7003;62863;52.062;23.764;2023-04-01T13:46:09;5;4.4;3.2
74430;PMS7003;62863;52.062;23.764;2023-04-01T13:51:41;6.4;5.8;4.6
74430;PMS7003;62863;52.062;23.764;2023-04-01T13:56:30;7;6.5;4.8
74430;PMS7003;62863;52.062;23.764;2023-04-01T14:01:00;6.5;5.3;4.3
74430;PMS7003;62863;52.062;23.764;2023-04-01T14:06:19;8;6.5;5.5
74430;PMS7003;62863;52.062;23.764;2023-04-01T14:16:47;6.5;5.5;5
74430;PMS7003;62863;52.062;23.764;2023-04-01T14:21:38;7.7;6;4.3
74430;PMS7003;62863;52.062;23.764;2023-04-01T14:26:33;6;6;4.5
74430;PMS7003;62863;52.062;23.764;2023-04-01T14:31:17;7;6;5
74430;PMS7003;62863;52.062;23.764;2023-04-01T14:36:01;5.8;5.2;4.4
74430;PMS7003;62863;52.062;23.764;2023-04-01T14:41:41;4.5;4;3.5
74430;PMS7003;62863;52.062;23.764;2023-04-01T14:46:44;5.8;5;3.5
74430;PMS7003;62863;52.062;23.764;2023-04-01T14:51:29;7.6;6;4.6
74430;PMS7003;62863;52.062;23.764;2023-04-01T15:01:07;8.3;8;6
74430;PMS7003;62863;52.062;23.764;2023-04-01T15:06:16;8;7.5;5.5
74430;PMS7003;62863;52.062;23.764;2023-04-01T15:11:43;8.6;7.6;6
74430;PMS7003;62863;52.062;23.764;2023-04-01T15:16:31;12.2;10.4;7.6
74430;PMS7003;62863;52.062;23.764;2023-04-01T15:21:31;17;16.5;12
74430;PMS7003;62863;52.062;23.764;2023-04-01T15:26:22;10;9;7.5
74430;PMS7003;62863;52.062;23.764;2023-04-01T15:31:25;15;12.3;9.7
74430;PMS7003;62863;52.062;23.764;2023-04-01T15:41:02;13;10;7
74430;PMS7003;62863;52.062;23.764;2023-04-01T15:46:18;10.7;10.7;7.7
74430;PMS7003;62863;52.062;23.764;2023-04-01T15:56:35;22;17;14
74430;PMS7003;62863;52.062;23.764;2023-04-01T16:01:25;13.5;13;9
74430;PMS7003;62863;52.062;23.764;2023-04-01T16:15:59;8;8;5
74430;PMS7003;62863;52.062;23.764;2023-04-01T16:26:37;10;9;6
74430;PMS7003;62863;52.062;23.764;2023-04-01T16:36:17;7;5;4
74430;PMS7003;62863;52.062;23.764;2023-04-01T16:41:23;7;5;4
74430;PMS7003;62863;52.062;23.764;2023-04-01T16:56:20;10.5;10.5;7
74430;PMS7003;62863;52.062;23.764;2023-04-01T17:01:04;37.3;29.7;20.3
74430;PMS7003;62863;52.062;23.764;2023-04-01T17:11:31;59.3;46;30.8
74430;PMS7003;62863;52.062;23.764;2023-04-01T17:16:44;57.5;46.5;32.5
74430;PMS7003;62863;52.062;23.764;2023-04-01T17:26:01;48;40.5;27
74430;PMS7003;62863;52.062;23.764;2023-04-01T17:31:26;45.4;36;24.6
74430;PMS7003;62863;52.062;23.764;2023-04-01T17:36:21;26.8;24;18
74430;PMS7003;62863;52.062;23.764;2023-04-01T17:41:31;20.5;16;11
74430;PMS7003;62863;52.062;23.764;2023-04-01T17:46:26;24.7;22;15.3
74430;PMS7003;62863;52.062;23.764;2023-04-01T17:56:20;27;24;17
74430;PMS7003;62863;52.062;23.764;2023-04-01T18:01:02;27;23;16
74430;PMS7003;62863;52.062;23.764;2023-04-01T18:06:33;20;19.2;14.4
74430;PMS7003;62863;52.062;23.764;2023-04-01T18:11:34;17.5;16;13.3
74430;PMS7003;62863;52.062;23.764;2023-04-01T18:16:45;18.8;17.6;12.8
74430;PMS7003;62863;52.062;23.764;2023-04-01T18:21:14;17.7;14;10
74430;PMS7003;62863;52.062;23.764;2023-04-01T18:26:13;19;16;13.6
74430;PMS7003;62863;52.062;23.764;2023-04-01T18:31:35;23;22.3;16.7
74430;PMS7003;62863;52.062;23.764;2023-04-01T18:36:33;28;24.4;17.4
74430;PMS7003;62863;52.062;23.764;2023-04-01T18:41:14;25.7;23;17
74430;PMS7003;62863;52.062;23.764;2023-04-01T18:46:25;21.5;21;15.5
74430;PMS7003;62863;52.062;23.764;2023-04-01T18:51:13;24.3;22;15.7
74430;PMS7003;62863;52.062;23.764;2023-04-01T18:56:37;25;20;14.5
74430;PMS7003;62863;52.062;23.764;2023-04-01T19:01:31;22;20;14
74430;PMS7003;62863;52.062;23.764;2023-04-01T19:15:57;22;20;14
74430;PMS7003;62863;52.062;23.764;2023-04-01T19:21:37;49.6;39.8;25.8
74430;PMS7003;62863;52.062;23.764;2023-04-01T19:26:29;37.3;31.7;19.7
74430;PMS7003;62863;52.062;23.764;2023-04-01T19:31:30;14.3;12.7;9
74430;PMS7003;62863;52.062;23.764;2023-04-01T19:36:14;12;10;7.5
74430;PMS7003;62863;52.062;23.764;2023-04-01T19:41:04;15.3;14;10.3
74430;PMS7003;62863;52.062;23.764;2023-04-01T19:46:30;11.4;9.4;7
74430;PMS7003;62863;52.062;23.764;2023-04-01T19:51:19;7;5;3.6
74430;PMS7003;62863;52.062;23.764;2023-04-01T19:56:14;9.6;7.8;5.4
74430;PMS7003;62863;52.062;23.764;2023-04-01T20:01:05;9.3;7.3;5.5
74430;PMS7003;62863;52.062;23.764;2023-04-01T20:06:05;6;5.3;4.3
74430;PMS7003;62863;52.062;23.764;2023-04-01T20:11:38;9.8;7;4.8
74430;PMS7003;62863;52.062;23.764;2023-04-01T20:16:43;8.5;7.5;4.5
74430;PMS7003;62863;52.062;23.764;2023-04-01T20:20:57;7;6;4
74430;PMS7003;62863;52.062;23.764;2023-04-01T20:36:36;12.5;11.5;8.5
74430;PMS7003;62863;52.062;23.764;2023-04-01T20:51:12;27;27;18
74430;PMS7003;62863;52.062;23.764;2023-04-01T20:56:16;24;21;14
74430;PMS7003;62863;52.062;23.764;2023-04-01T21:01:37;17.5;15;11.5
74430;PMS7003;62863;52.062;23.764;2023-04-01T21:06:18;9.5;9.5;7.5
74430;PMS7003;62863;52.062;23.764;2023-04-01T21:11:15;5.7;4.3;3.7
74430;PMS7003;62863;52.062;23.764;2023-04-01T21:16:10;8;6.3;4.3
74430;PMS7003;62863;52.062;23.764;2023-04-01T21:21:18;8;6.3;4.3
74430;PMS7003;62863;52.062;23.764;2023-04-01T21:41:17;8.5;7.5;5.5
74430;PMS7003;62863;52.062;23.764;2023-04-01T21:46:19;17.5;15;11
74430;PMS7003;62863;52.062;23.764;2023-04-01T21:56:30;13;13;8
74430;PMS7003;62863;52.062;23.764;2023-04-01T22:01:22;19;10;8
74430;PMS7003;62863;52.062;23.764;2023-04-01T22:16:36;10.7;8;6.3
74430;PMS7003;62863;52.062;23.764;2023-04-01T22:21:29;10.7;10.7;8
74430;PMS7003;62863;52.062;23.764;2023-04-01T22:41:25;11;9;5
74430;PMS7003;62863;52.062;23.764;2023-04-01T22:46:01;9;7.5;6.5
74430;PMS7003;62863;52.062;23.764;2023-04-01T22:56:15;11;9;7.5
74430;PMS7003;62863;52.062;23.764;2023-04-01T23:11:09;11;9;7.5
74430;PMS7003;62863;52.062;23.764;2023-04-01T23:16:20;11;9;7.5
74430;PMS7003;62863;52.062;23.764;2023-04-01T23:21:00;11;9;7.5
74430;PMS7003;62863;52.062;23.764;2023-04-01T23:26:34;12.5;11.5;7.5
74430;PMS7003;62863;52.062;23.764;2023-04-01T23:41:20;3;3;2
74430;PMS7003;62863;52.062;23.764;2023-04-01T23:46:05;3;3;3
